sensor_id;sensor_type;location;lat;lon;timestamp;P1;durP1;ratioP1;P2;durP2;ratioP2
12222;SDS011;6174;49.058;8.524;2022-10-16T05:11:10;3.80;;;1.77;;
12222;SDS011;6174;49.058;8.524;2022-10-16T05:13:37;2.30;;;1.80;;
12222;SDS011;6174;49.058;8.524;2022-10-16T05:16:04;3.80;;;2.10;;
12222;SDS011;6174;49.058;8.524;2022-10-16T05:18:31;2.00;;;1.90;;
12222;SDS011;6174;49.058;8.524;2022-10-16T05:20:58;1.93;;;1.67;;
12222;SDS011;6174;49.058;8.524;2022-10-16T05:23:25;2.83;;;1.80;;
12222;SDS011;6174;49.058;8.524;2022-10-16T05:36:12;3.53;;;2.20;;
12222;SDS011;6174;49.058;8.524;2022-10-16T05:38:39;2.97;;;2.10;;
12222;SDS011;6174;49.058;8.524;2022-10-16T05:41:06;3.87;;;2.37;;
12222;SDS011;6174;49.058;8.524;2022-10-16T05:43:32;5.53;;;2.60;;
12222;SDS011;6174;49.058;8.524;2022-10-16T05:46:00;5.90;;;4.33;;
12222;SDS011;6174;49.058;8.524;2022-10-16T05:48:30;8.07;;;6.50;;
12222;SDS011;6174;49.058;8.524;2022-10-16T05:50:58;11.87;;;9.37;;
12222;SDS011;6174;49.058;8.524;2022-10-16T05:53:28;18.80;;;16.80;;
12222;SDS011;6174;49.058;8.524;2022-10-16T05:55:56;8.93;;;7.97;;
12222;SDS011;6174;49.058;8.524;2022-10-16T05:58:23;10.63;;;8.60;;
12222;SDS011;6174;49.058;8.524;2022-10-16T06:00:54;11.30;;;7.47;;
12222;SDS011;6174;49.058;8.524;2022-10-16T06:03:21;13.97;;;8.60;;
12222;SDS011;6174;49.058;8.524;2022-10-16T06:05:48;6.50;;;5.80;;
12222;SDS011;6174;49.058;8.524;2022-10-16T06:08:15;7.20;;;4.43;;
12222;SDS011;6174;49.058;8.524;2022-10-16T06:10:44;4.73;;;3.47;;
12222;SDS011;6174;49.058;8.524;2022-10-16T06:13:11;4.93;;;2.90;;
12222;SDS011;6174;49.058;8.524;2022-10-16T06:15:38;5.87;;;2.50;;
12222;SDS011;6174;49.058;8.524;2022-10-16T06:18:06;4.03;;;2.47;;
12222;SDS011;6174;49.058;8.524;2022-10-16T06:20:34;3.23;;;2.43;;
12222;SDS011;6174;49.058;8.524;2022-10-16T06:23:00;3.77;;;2.60;;
12222;SDS011;6174;49.058;8.524;2022-10-16T06:25:29;4.47;;;2.80;;
12222;SDS011;6174;49.058;8.524;2022-10-16T06:27:57;3.13;;;2.40;;
12222;SDS011;6174;49.058;8.524;2022-10-16T06:30:23;2.90;;;2.37;;
12222;SDS011;6174;49.058;8.524;2022-10-16T06:32:50;3.40;;;2.40;;
12222;SDS011;6174;49.058;8.524;2022-10-16T06:35:17;4.10;;;3.27;;
12222;SDS011;6174;49.058;8.524;2022-10-16T06:37:44;8.20;;;4.03;;
12222;SDS011;6174;49.058;8.524;2022-10-16T06:40:10;6.63;;;3.50;;
12222;SDS011;6174;49.058;8.524;2022-10-16T06:42:39;8.00;;;3.30;;
12222;SDS011;6174;49.058;8.524;2022-10-16T06:45:07;3.67;;;2.50;;
12222;SDS011;6174;49.058;8.524;2022-10-16T06:47:35;4.23;;;2.40;;
12222;SDS011;6174;49.058;8.524;2022-10-16T06:50:01;2.90;;;2.40;;
12222;SDS011;6174;49.058;8.524;2022-10-16T06:52:29;4.13;;;2.50;;
12222;SDS011;6174;49.058;8.524;2022-10-16T06:54:55;4.17;;;2.87;;
12222;SDS011;6174;49.058;8.524;2022-10-16T06:57:22;4.40;;;2.50;;
12222;SDS011;6174;49.058;8.524;2022-10-16T06:59:52;2.60;;;2.40;;
12222;SDS011;6174;49.058;8.524;2022-10-16T07:02:20;5.43;;;2.20;;
12222;SDS011;6174;49.058;8.524;2022-10-16T07:04:47;3.37;;;2.10;;
12222;SDS011;6174;49.058;8.524;2022-10-16T07:07:13;4.10;;;2.30;;
12222;SDS011;6174;49.058;8.524;2022-10-16T07:09:40;2.40;;;2.20;;
12222;SDS011;6174;49.058;8.524;2022-10-16T07:12:07;5.93;;;2.30;;
12222;SDS011;6174;49.058;8.524;2022-10-16T07:14:33;4.27;;;2.30;;
12222;SDS011;6174;49.058;8.524;2022-10-16T07:17:00;3.73;;;2.10;;
12222;SDS011;6174;49.058;8.524;2022-10-16T07:19:29;2.97;;;1.77;;
12222;SDS011;6174;49.058;8.524;2022-10-16T07:21:56;3.77;;;1.80;;
12222;SDS011;6174;49.058;8.524;2022-10-16T07:24:23;1.70;;;1.60;;
12222;SDS011;6174;49.058;8.524;2022-10-16T07:26:49;3.23;;;1.90;;
12222;SDS011;6174;49.058;8.524;2022-10-16T07:29:17;2.03;;;1.80;;
12222;SDS011;6174;49.058;8.524;2022-10-16T07:31:45;2.40;;;1.50;;
12222;SDS011;6174;49.058;8.524;2022-10-16T07:34:13;2.90;;;1.80;;
12222;SDS011;6174;49.058;8.524;2022-10-16T07:36:42;3.37;;;1.90;;
12222;SDS011;6174;49.058;8.524;2022-10-16T07:39:09;3.73;;;2.17;;
12222;SDS011;6174;49.058;8.524;2022-10-16T07:41:36;1.93;;;1.83;;
12222;SDS011;6174;49.058;8.524;2022-10-16T07:44:02;4.17;;;2.00;;
12222;SDS011;6174;49.058;8.524;2022-10-16T07:46:31;2.37;;;2.03;;
12222;SDS011;6174;49.058;8.524;2022-10-16T07:48:59;3.43;;;2.07;;
12222;SDS011;6174;49.058;8.524;2022-10-16T07:51:26;3.97;;;1.83;;
12222;SDS011;6174;49.058;8.524;2022-10-16T07:53:54;3.20;;;1.97;;
12222;SDS011;6174;49.058;8.524;2022-10-16T07:56:21;2.23;;;1.80;;
12222;SDS011;6174;49.058;8.524;2022-10-16T07:58:49;3.47;;;2.10;;
12222;SDS011;6174;49.058;8.524;2022-10-16T08:01:16;2.20;;;2.00;;
12222;SDS011;6174;49.058;8.524;2022-10-16T08:03:44;4.20;;;3.80;;
12222;SDS011;6174;49.058;8.524;2022-10-16T08:06:12;4.73;;;3.27;;
12222;SDS011;6174;49.058;8.524;2022-10-16T08:08:38;3.83;;;3.23;;
12222;SDS011;6174;49.058;8.524;2022-10-16T08:11:06;6.67;;;3.93;;
12222;SDS011;6174;49.058;8.524;2022-10-16T08:13:34;54.83;;;18.27;;
12222;SDS011;6174;49.058;8.524;2022-10-16T08:16:01;7.27;;;4.33;;
12222;SDS011;6174;49.058;8.524;2022-10-16T08:18:32;3.67;;;3.10;;
12222;SDS011;6174;49.058;8.524;2022-10-16T08:20:59;3.00;;;2.60;;
12222;SDS011;6174;49.058;8.524;2022-10-16T08:23:26;4.70;;;2.57;;
12222;SDS011;6174;49.058;8.524;2022-10-16T08:25:53;3.80;;;2.10;;
12222;SDS011;6174;49.058;8.524;2022-10-16T08:28:22;3.23;;;2.17;;
12222;SDS011;6174;49.058;8.524;2022-10-16T08:30:49;2.37;;;2.00;;
12222;SDS011;6174;49.058;8.524;2022-10-16T08:33:16;2.07;;;1.87;;
12222;SDS011;6174;49.058;8.524;2022-10-16T08:35:43;1.83;;;1.60;;
12222;SDS011;6174;49.058;8.524;2022-10-16T08:38:16;7.47;;;2.07;;
12222;SDS011;6174;49.058;8.524;2022-10-16T08:40:43;3.43;;;2.03;;
12222;SDS011;6174;49.058;8.524;2022-10-16T08:43:20;4.37;;;2.07;;
12222;SDS011;6174;49.058;8.524;2022-10-16T08:46:04;3.10;;;2.30;;
12222;SDS011;6174;49.058;8.524;2022-10-16T08:48:48;2.40;;;2.20;;
12222;SDS011;6174;49.058;8.524;2022-10-16T08:51:18;3.00;;;2.10;;
12222;SDS011;6174;49.058;8.524;2022-10-16T08:53:49;2.77;;;1.80;;
12222;SDS011;6174;49.058;8.524;2022-10-16T08:56:19;4.83;;;2.13;;
12222;SDS011;6174;49.058;8.524;2022-10-16T08:58:48;2.97;;;2.30;;
12222;SDS011;6174;49.058;8.524;2022-10-16T09:01:17;3.87;;;2.40;;
12222;SDS011;6174;49.058;8.524;2022-10-16T09:03:49;5.03;;;2.30;;
12222;SDS011;6174;49.058;8.524;2022-10-16T09:06:35;3.77;;;2.47;;
12222;SDS011;6174;49.058;8.524;2022-10-16T09:09:23;2.87;;;2.00;;
12222;SDS011;6174;49.058;8.524;2022-10-16T09:12:03;2.40;;;1.70;;
12222;SDS011;6174;49.058;8.524;2022-10-16T09:14:40;6.00;;;2.00;;
12222;SDS011;6174;49.058;8.524;2022-10-16T09:17:25;3.20;;;1.50;;
12222;SDS011;6174;49.058;8.524;2022-10-16T09:20:03;5.43;;;1.80;;
12222;SDS011;6174;49.058;8.524;2022-10-16T09:22:42;4.30;;;1.87;;
12222;SDS011;6174;49.058;8.524;2022-10-16T09:25:11;3.43;;;1.67;;
12222;SDS011;6174;49.058;8.524;2022-10-16T09:27:39;2.77;;;1.40;;
12222;SDS011;6174;49.058;8.524;2022-10-16T09:30:12;4.63;;;1.50;;
12222;SDS011;6174;49.058;8.524;2022-10-16T09:32:40;1.80;;;1.50;;
12222;SDS011;6174;49.058;8.524;2022-10-16T09:35:11;2.87;;;1.60;;
12222;SDS011;6174;49.058;8.524;2022-10-16T09:37:42;5.30;;;1.70;;
12222;SDS011;6174;49.058;8.524;2022-10-16T09:40:13;3.77;;;1.97;;
12222;SDS011;6174;49.058;8.524;2022-10-16T09:42:52;2.10;;;1.60;;
12222;SDS011;6174;49.058;8.524;2022-10-16T09:45:28;1.70;;;1.50;;
12222;SDS011;6174;49.058;8.524;2022-10-16T09:47:55;2.43;;;1.77;;
12222;SDS011;6174;49.058;8.524;2022-10-16T09:50:28;2.43;;;1.80;;
12222;SDS011;6174;49.058;8.524;2022-10-16T09:53:04;2.30;;;1.70;;
12222;SDS011;6174;49.058;8.524;2022-10-16T09:55:35;3.37;;;1.77;;
12222;SDS011;6174;49.058;8.524;2022-10-16T09:58:02;3.77;;;1.83;;
12222;SDS011;6174;49.058;8.524;2022-10-16T10:00:30;2.80;;;1.80;;
12222;SDS011;6174;49.058;8.524;2022-10-16T10:02:57;3.23;;;1.80;;
12222;SDS011;6174;49.058;8.524;2022-10-16T10:05:24;2.43;;;1.90;;
12222;SDS011;6174;49.058;8.524;2022-10-16T10:07:54;3.77;;;1.73;;
12222;SDS011;6174;49.058;8.524;2022-10-16T10:10:23;3.07;;;1.90;;
12222;SDS011;6174;49.058;8.524;2022-10-16T10:12:51;1.83;;;1.70;;
12222;SDS011;6174;49.058;8.524;2022-10-16T10:15:18;3.33;;;1.60;;
12222;SDS011;6174;49.058;8.524;2022-10-16T10:17:48;2.30;;;1.57;;
12222;SDS011;6174;49.058;8.524;2022-10-16T10:20:24;1.93;;;1.70;;
12222;SDS011;6174;49.058;8.524;2022-10-16T10:22:52;2.57;;;1.87;;
12222;SDS011;6174;49.058;8.524;2022-10-16T10:25:29;2.27;;;1.60;;
12222;SDS011;6174;49.058;8.524;2022-10-16T10:28:17;4.57;;;1.83;;
12222;SDS011;6174;49.058;8.524;2022-10-16T10:30:52;3.47;;;1.63;;
12222;SDS011;6174;49.058;8.524;2022-10-16T10:33:27;4.77;;;1.87;;
12222;SDS011;6174;49.058;8.524;2022-10-16T10:36:05;4.37;;;1.73;;
12222;SDS011;6174;49.058;8.524;2022-10-16T10:38:43;4.37;;;2.13;;
12222;SDS011;6174;49.058;8.524;2022-10-16T10:41:43;6.67;;;1.97;;
12222;SDS011;6174;49.058;8.524;2022-10-16T10:44:28;2.20;;;1.73;;
12222;SDS011;6174;49.058;8.524;2022-10-16T10:47:12;2.63;;;1.90;;
12222;SDS011;6174;49.058;8.524;2022-10-16T10:49:54;3.57;;;1.93;;
12222;SDS011;6174;49.058;8.524;2022-10-16T10:52:31;2.60;;;1.90;;
12222;SDS011;6174;49.058;8.524;2022-10-16T10:55:09;5.07;;;1.80;;
12222;SDS011;6174;49.058;8.524;2022-10-16T10:57:45;4.00;;;1.83;;
12222;SDS011;6174;49.058;8.524;2022-10-16T11:00:33;3.40;;;1.80;;
12222;SDS011;6174;49.058;8.524;2022-10-16T11:03:12;3.57;;;1.70;;
12222;SDS011;6174;49.058;8.524;2022-10-16T11:05:52;2.40;;;1.60;;
12222;SDS011;6174;49.058;8.524;2022-10-16T11:08:23;2.50;;;1.70;;
12222;SDS011;6174;49.058;8.524;2022-10-16T11:10:56;3.93;;;2.00;;
12222;SDS011;6174;49.058;8.524;2022-10-16T11:13:28;1.90;;;1.70;;
12222;SDS011;6174;49.058;8.524;2022-10-16T11:16:00;2.27;;;1.97;;
12222;SDS011;6174;49.058;8.524;2022-10-16T11:18:44;2.97;;;2.00;;
12222;SDS011;6174;49.058;8.524;2022-10-16T11:21:17;3.00;;;1.67;;
12222;SDS011;6174;49.058;8.524;2022-10-16T11:23:48;3.60;;;1.87;;
12222;SDS011;6174;49.058;8.524;2022-10-16T11:26:22;4.47;;;2.23;;
12222;SDS011;6174;49.058;8.524;2022-10-16T11:28:52;2.07;;;1.53;;
12222;SDS011;6174;49.058;8.524;2022-10-16T11:31:22;2.80;;;1.73;;
12222;SDS011;6174;49.058;8.524;2022-10-16T11:33:57;2.83;;;2.13;;
12222;SDS011;6174;49.058;8.524;2022-10-16T11:36:32;2.63;;;1.90;;
12222;SDS011;6174;49.058;8.524;2022-10-16T11:39:04;4.93;;;2.00;;
12222;SDS011;6174;49.058;8.524;2022-10-16T11:41:42;4.80;;;2.10;;
12222;SDS011;6174;49.058;8.524;2022-10-16T11:44:16;2.70;;;1.70;;
12222;SDS011;6174;49.058;8.524;2022-10-16T11:46:53;3.60;;;1.80;;
12222;SDS011;6174;49.058;8.524;2022-10-16T11:49:27;6.03;;;1.70;;
12222;SDS011;6174;49.058;8.524;2022-10-16T11:52:01;2.10;;;1.77;;
12222;SDS011;6174;49.058;8.524;2022-10-16T11:54:38;2.27;;;1.70;;
12222;SDS011;6174;49.058;8.524;2022-10-16T11:57:11;2.10;;;1.90;;
12222;SDS011;6174;49.058;8.524;2022-10-16T11:59:42;2.10;;;1.77;;
12222;SDS011;6174;49.058;8.524;2022-10-16T12:05:01;4.07;;;2.00;;
12222;SDS011;6174;49.058;8.524;2022-10-16T12:07:41;3.97;;;1.60;;
12222;SDS011;6174;49.058;8.524;2022-10-16T12:10:22;2.30;;;1.60;;
12222;SDS011;6174;49.058;8.524;2022-10-16T12:12:50;3.27;;;2.00;;
12222;SDS011;6174;49.058;8.524;2022-10-16T12:15:18;2.03;;;1.60;;
12222;SDS011;6174;49.058;8.524;2022-10-16T12:17:48;4.43;;;1.97;;
12222;SDS011;6174;49.058;8.524;2022-10-16T12:20:20;5.30;;;2.00;;
12222;SDS011;6174;49.058;8.524;2022-10-16T12:22:52;4.10;;;2.03;;
12222;SDS011;6174;49.058;8.524;2022-10-16T12:25:21;3.53;;;1.93;;
12222;SDS011;6174;49.058;8.524;2022-10-16T12:27:54;2.53;;;1.70;;
12222;SDS011;6174;49.058;8.524;2022-10-16T12:30:26;1.80;;;1.40;;
12222;SDS011;6174;49.058;8.524;2022-10-16T12:32:55;2.00;;;1.80;;
12222;SDS011;6174;49.058;8.524;2022-10-16T12:35:25;2.97;;;1.80;;
12222;SDS011;6174;49.058;8.524;2022-10-16T12:38:03;2.87;;;2.00;;
12222;SDS011;6174;49.058;8.524;2022-10-16T12:40:40;2.70;;;1.97;;
12222;SDS011;6174;49.058;8.524;2022-10-16T12:43:24;3.13;;;1.70;;
12222;SDS011;6174;49.058;8.524;2022-10-16T12:45:59;2.93;;;1.80;;
12222;SDS011;6174;49.058;8.524;2022-10-16T12:48:28;1.93;;;1.60;;
12222;SDS011;6174;49.058;8.524;2022-10-16T12:50:56;2.07;;;1.70;;
12222;SDS011;6174;49.058;8.524;2022-10-16T12:53:24;3.80;;;1.70;;
12222;SDS011;6174;49.058;8.524;2022-10-16T12:55:58;3.20;;;1.90;;
12222;SDS011;6174;49.058;8.524;2022-10-16T12:58:36;3.50;;;2.30;;
12222;SDS011;6174;49.058;8.524;2022-10-16T13:01:13;3.00;;;2.13;;
12222;SDS011;6174;49.058;8.524;2022-10-16T13:03:50;2.10;;;1.90;;
12222;SDS011;6174;49.058;8.524;2022-10-16T13:06:33;2.23;;;2.03;;
12222;SDS011;6174;49.058;8.524;2022-10-16T13:09:10;2.10;;;2.00;;
12222;SDS011;6174;49.058;8.524;2022-10-16T13:12:01;1.97;;;1.83;;
12222;SDS011;6174;49.058;8.524;2022-10-16T13:14:55;5.03;;;2.00;;
12222;SDS011;6174;49.058;8.524;2022-10-16T13:17:37;4.87;;;2.13;;
12222;SDS011;6174;49.058;8.524;2022-10-16T13:20:12;5.73;;;2.10;;
12222;SDS011;6174;49.058;8.524;2022-10-16T13:22:49;5.23;;;1.93;;
12222;SDS011;6174;49.058;8.524;2022-10-16T13:25:23;1.93;;;1.73;;
12222;SDS011;6174;49.058;8.524;2022-10-16T13:28:00;2.80;;;2.60;;
12222;SDS011;6174;49.058;8.524;2022-10-16T13:30:28;2.73;;;1.93;;
12222;SDS011;6174;49.058;8.524;2022-10-16T13:32:59;3.53;;;1.87;;
12222;SDS011;6174;49.058;8.524;2022-10-16T13:35:28;4.03;;;2.67;;
12222;SDS011;6174;49.058;8.524;2022-10-16T13:38:03;2.27;;;2.17;;
12222;SDS011;6174;49.058;8.524;2022-10-16T13:40:52;2.93;;;2.00;;
12222;SDS011;6174;49.058;8.524;2022-10-16T13:43:21;2.87;;;2.13;;
12222;SDS011;6174;49.058;8.524;2022-10-16T13:45:57;3.60;;;2.30;;
12222;SDS011;6174;49.058;8.524;2022-10-16T13:48:27;5.23;;;2.30;;
12222;SDS011;6174;49.058;8.524;2022-10-16T13:51:00;4.70;;;2.00;;
12222;SDS011;6174;49.058;8.524;2022-10-16T13:53:30;4.57;;;1.77;;
12222;SDS011;6174;49.058;8.524;2022-10-16T13:55:59;3.63;;;2.20;;
12222;SDS011;6174;49.058;8.524;2022-10-16T13:58:27;4.13;;;2.80;;
12222;SDS011;6174;49.058;8.524;2022-10-16T14:00:55;5.03;;;2.70;;
12222;SDS011;6174;49.058;8.524;2022-10-16T14:03:23;4.73;;;2.37;;
12222;SDS011;6174;49.058;8.524;2022-10-16T14:05:52;5.23;;;2.60;;
12222;SDS011;6174;49.058;8.524;2022-10-16T14:08:21;2.33;;;2.10;;
12222;SDS011;6174;49.058;8.524;2022-10-16T14:10:49;3.23;;;2.10;;
12222;SDS011;6174;49.058;8.524;2022-10-16T14:13:20;3.40;;;2.20;;
12222;SDS011;6174;49.058;8.524;2022-10-16T14:15:53;4.67;;;2.50;;
12222;SDS011;6174;49.058;8.524;2022-10-16T14:18:23;2.80;;;2.10;;
12222;SDS011;6174;49.058;8.524;2022-10-16T14:20:53;2.33;;;1.83;;
12222;SDS011;6174;49.058;8.524;2022-10-16T14:23:21;2.63;;;2.10;;
12222;SDS011;6174;49.058;8.524;2022-10-16T14:25:51;3.47;;;2.40;;
12222;SDS011;6174;49.058;8.524;2022-10-16T14:28:20;3.40;;;2.60;;
12222;SDS011;6174;49.058;8.524;2022-10-16T14:30:49;3.33;;;2.30;;
12222;SDS011;6174;49.058;8.524;2022-10-16T14:33:21;5.37;;;2.60;;
12222;SDS011;6174;49.058;8.524;2022-10-16T14:36:00;4.47;;;2.27;;
12222;SDS011;6174;49.058;8.524;2022-10-16T14:38:29;3.90;;;2.33;;
12222;SDS011;6174;49.058;8.524;2022-10-16T14:40:57;2.50;;;2.30;;
12222;SDS011;6174;49.058;8.524;2022-10-16T14:43:29;2.73;;;2.23;;
12222;SDS011;6174;49.058;8.524;2022-10-16T14:45:59;3.27;;;2.10;;
12222;SDS011;6174;49.058;8.524;2022-10-16T14:48:29;2.80;;;2.50;;
12222;SDS011;6174;49.058;8.524;2022-10-16T14:50:56;2.97;;;2.20;;
12222;SDS011;6174;49.058;8.524;2022-10-16T14:53:22;5.03;;;2.23;;
12222;SDS011;6174;49.058;8.524;2022-10-16T14:55:49;3.27;;;1.97;;
12222;SDS011;6174;49.058;8.524;2022-10-16T14:58:17;3.80;;;2.40;;
12222;SDS011;6174;49.058;8.524;2022-10-16T15:00:47;3.43;;;2.00;;
12222;SDS011;6174;49.058;8.524;2022-10-16T15:03:14;5.27;;;2.37;;
12222;SDS011;6174;49.058;8.524;2022-10-16T15:05:41;4.17;;;2.30;;
12222;SDS011;6174;49.058;8.524;2022-10-16T15:08:09;2.77;;;2.03;;
12222;SDS011;6174;49.058;8.524;2022-10-16T15:10:38;5.13;;;2.33;;
12222;SDS011;6174;49.058;8.524;2022-10-16T15:13:08;3.67;;;2.47;;
12222;SDS011;6174;49.058;8.524;2022-10-16T15:15:38;5.07;;;2.60;;
12222;SDS011;6174;49.058;8.524;2022-10-16T15:18:09;2.90;;;2.60;;
12222;SDS011;6174;49.058;8.524;2022-10-16T15:20:37;5.20;;;2.97;;
12222;SDS011;6174;49.058;8.524;2022-10-16T15:23:05;6.73;;;2.43;;
12222;SDS011;6174;49.058;8.524;2022-10-16T15:25:37;4.67;;;2.40;;
12222;SDS011;6174;49.058;8.524;2022-10-16T15:28:07;5.03;;;2.63;;
12222;SDS011;6174;49.058;8.524;2022-10-16T15:30:35;3.07;;;2.20;;
12222;SDS011;6174;49.058;8.524;2022-10-16T15:33:03;3.53;;;2.40;;
12222;SDS011;6174;49.058;8.524;2022-10-16T15:35:32;4.27;;;2.37;;
12222;SDS011;6174;49.058;8.524;2022-10-16T15:37:59;2.53;;;2.33;;
12222;SDS011;6174;49.058;8.524;2022-10-16T15:40:26;5.27;;;2.57;;
12222;SDS011;6174;49.058;8.524;2022-10-16T15:42:53;5.10;;;2.27;;
12222;SDS011;6174;49.058;8.524;2022-10-16T15:45:19;5.50;;;2.43;;
12222;SDS011;6174;49.058;8.524;2022-10-16T15:47:46;5.30;;;2.60;;
12222;SDS011;6174;49.058;8.524;2022-10-16T15:50:14;3.53;;;2.10;;
12222;SDS011;6174;49.058;8.524;2022-10-16T15:52:42;5.27;;;2.30;;
12222;SDS011;6174;49.058;8.524;2022-10-16T15:55:10;4.17;;;2.40;;
12222;SDS011;6174;49.058;8.524;2022-10-16T15:57:38;3.10;;;2.10;;
12222;SDS011;6174;49.058;8.524;2022-10-16T16:00:06;4.67;;;2.13;;
12222;SDS011;6174;49.058;8.524;2022-10-16T16:02:34;2.57;;;2.10;;
12222;SDS011;6174;49.058;8.524;2022-10-16T16:05:01;3.43;;;2.50;;
12222;SDS011;6174;49.058;8.524;2022-10-16T16:07:28;2.83;;;2.20;;
12222;SDS011;6174;49.058;8.524;2022-10-16T16:09:59;2.50;;;2.30;;
12222;SDS011;6174;49.058;8.524;2022-10-16T16:12:26;2.70;;;2.37;;
12222;SDS011;6174;49.058;8.524;2022-10-16T16:14:53;3.00;;;2.33;;
12222;SDS011;6174;49.058;8.524;2022-10-16T16:17:19;4.20;;;2.20;;
12222;SDS011;6174;49.058;8.524;2022-10-16T16:19:46;3.07;;;2.20;;
12222;SDS011;6174;49.058;8.524;2022-10-16T16:22:13;6.00;;;2.57;;
12222;SDS011;6174;49.058;8.524;2022-10-16T16:24:39;3.43;;;2.50;;
12222;SDS011;6174;49.058;8.524;2022-10-16T16:27:07;4.67;;;2.27;;
12222;SDS011;6174;49.058;8.524;2022-10-16T16:29:34;2.90;;;2.70;;
12222;SDS011;6174;49.058;8.524;2022-10-16T16:32:01;3.77;;;2.53;;
12222;SDS011;6174;49.058;8.524;2022-10-16T16:34:28;4.27;;;3.27;;
12222;SDS011;6174;49.058;8.524;2022-10-16T16:36:56;4.30;;;3.30;;
12222;SDS011;6174;49.058;8.524;2022-10-16T16:39:23;5.33;;;4.17;;
12222;SDS011;6174;49.058;8.524;2022-10-16T16:41:50;9.87;;;5.07;;
12222;SDS011;6174;49.058;8.524;2022-10-16T16:44:18;6.13;;;4.00;;
12222;SDS011;6174;49.058;8.524;2022-10-16T16:46:45;7.33;;;4.77;;
12222;SDS011;6174;49.058;8.524;2022-10-16T16:49:12;10.00;;;5.93;;
12222;SDS011;6174;49.058;8.524;2022-10-16T16:51:40;4.30;;;3.40;;
12222;SDS011;6174;49.058;8.524;2022-10-16T16:54:07;5.40;;;3.67;;
12222;SDS011;6174;49.058;8.524;2022-10-16T16:56:36;4.97;;;3.70;;
12222;SDS011;6174;49.058;8.524;2022-10-16T16:59:03;6.03;;;4.27;;
12222;SDS011;6174;49.058;8.524;2022-10-16T17:01:31;8.67;;;5.30;;
12222;SDS011;6174;49.058;8.524;2022-10-16T17:03:58;9.00;;;6.03;;
12222;SDS011;6174;49.058;8.524;2022-10-16T17:06:27;8.63;;;6.53;;
12222;SDS011;6174;49.058;8.524;2022-10-16T17:08:55;9.80;;;5.30;;
12222;SDS011;6174;49.058;8.524;2022-10-16T17:11:23;7.57;;;4.93;;
12222;SDS011;6174;49.058;8.524;2022-10-16T17:13:51;7.20;;;4.93;;
12222;SDS011;6174;49.058;8.524;2022-10-16T17:16:20;5.20;;;4.30;;
12222;SDS011;6174;49.058;8.524;2022-10-16T17:18:48;4.97;;;3.40;;
12222;SDS011;6174;49.058;8.524;2022-10-16T17:21:15;6.60;;;3.80;;
12222;SDS011;6174;49.058;8.524;2022-10-16T17:23:42;4.13;;;3.50;;
12222;SDS011;6174;49.058;8.524;2022-10-16T17:26:10;5.00;;;3.50;;
12222;SDS011;6174;49.058;8.524;2022-10-16T17:28:38;5.17;;;2.97;;
12222;SDS011;6174;49.058;8.524;2022-10-16T17:31:08;4.30;;;3.10;;
12222;SDS011;6174;49.058;8.524;2022-10-16T17:33:37;6.00;;;3.10;;
12222;SDS011;6174;49.058;8.524;2022-10-16T17:36:05;6.03;;;3.27;;
12222;SDS011;6174;49.058;8.524;2022-10-16T17:38:33;4.37;;;2.93;;
12222;SDS011;6174;49.058;8.524;2022-10-16T17:41:08;3.20;;;2.60;;
12222;SDS011;6174;49.058;8.524;2022-10-16T17:43:36;4.17;;;2.90;;
12222;SDS011;6174;49.058;8.524;2022-10-16T17:46:04;3.77;;;2.90;;
12222;SDS011;6174;49.058;8.524;2022-10-16T17:48:31;6.30;;;3.10;;
12222;SDS011;6174;49.058;8.524;2022-10-16T17:51:03;2.90;;;2.50;;
12222;SDS011;6174;49.058;8.524;2022-10-16T17:53:32;3.23;;;2.80;;
12222;SDS011;6174;49.058;8.524;2022-10-16T17:56:01;5.27;;;2.60;;
12222;SDS011;6174;49.058;8.524;2022-10-16T17:58:29;3.50;;;2.83;;
12222;SDS011;6174;49.058;8.524;2022-10-16T18:00:55;4.90;;;2.87;;
12222;SDS011;6174;49.058;8.524;2022-10-16T18:03:22;4.97;;;2.80;;
12222;SDS011;6174;49.058;8.524;2022-10-16T18:05:51;4.70;;;2.50;;
12222;SDS011;6174;49.058;8.524;2022-10-16T18:08:17;4.27;;;2.90;;
12222;SDS011;6174;49.058;8.524;2022-10-16T18:10:46;5.20;;;3.10;;
12222;SDS011;6174;49.058;8.524;2022-10-16T18:13:13;3.70;;;2.93;;
12222;SDS011;6174;49.058;8.524;2022-10-16T18:15:40;5.73;;;2.80;;
12222;SDS011;6174;49.058;8.524;2022-10-16T18:18:08;5.87;;;3.00;;
12222;SDS011;6174;49.058;8.524;2022-10-16T18:20:35;9.37;;;2.90;;
12222;SDS011;6174;49.058;8.524;2022-10-16T18:23:01;4.70;;;2.63;;
12222;SDS011;6174;49.058;8.524;2022-10-16T18:25:28;5.30;;;2.80;;
12222;SDS011;6174;49.058;8.524;2022-10-16T18:27:56;6.17;;;2.80;;
12222;SDS011;6174;49.058;8.524;2022-10-16T18:30:23;4.97;;;2.87;;
12222;SDS011;6174;49.058;8.524;2022-10-16T18:32:50;3.67;;;2.80;;
12222;SDS011;6174;49.058;8.524;2022-10-16T18:35:17;4.13;;;2.77;;
12222;SDS011;6174;49.058;8.524;2022-10-16T18:37:44;5.67;;;2.70;;
12222;SDS011;6174;49.058;8.524;2022-10-16T18:40:11;4.37;;;2.50;;
12222;SDS011;6174;49.058;8.524;2022-10-16T18:42:37;8.20;;;3.10;;
12222;SDS011;6174;49.058;8.524;2022-10-16T18:45:06;8.13;;;2.80;;
12222;SDS011;6174;49.058;8.524;2022-10-16T18:47:34;3.37;;;2.90;;
12222;SDS011;6174;49.058;8.524;2022-10-16T18:50:00;2.93;;;2.60;;
12222;SDS011;6174;49.058;8.524;2022-10-16T18:52:27;3.20;;;2.60;;
12222;SDS011;6174;49.058;8.524;2022-10-16T18:54:55;4.30;;;3.17;;
12222;SDS011;6174;49.058;8.524;2022-10-16T18:57:23;5.40;;;3.10;;
12222;SDS011;6174;49.058;8.524;2022-10-16T18:59:49;5.67;;;3.10;;
12222;SDS011;6174;49.058;8.524;2022-10-16T19:02:17;6.47;;;3.20;;
12222;SDS011;6174;49.058;8.524;2022-10-16T19:04:44;4.43;;;3.67;;
12222;SDS011;6174;49.058;8.524;2022-10-16T19:07:12;6.40;;;3.47;;
12222;SDS011;6174;49.058;8.524;2022-10-16T19:09:40;3.90;;;3.50;;
12222;SDS011;6174;49.058;8.524;2022-10-16T19:12:07;4.83;;;3.53;;
12222;SDS011;6174;49.058;8.524;2022-10-16T19:14:34;5.87;;;3.67;;
12222;SDS011;6174;49.058;8.524;2022-10-16T19:17:01;6.57;;;3.17;;
12222;SDS011;6174;49.058;8.524;2022-10-16T19:19:30;4.40;;;3.20;;
12222;SDS011;6174;49.058;8.524;2022-10-16T19:21:56;5.37;;;2.93;;
12222;SDS011;6174;49.058;8.524;2022-10-16T19:24:35;5.33;;;3.10;;
12222;SDS011;6174;49.058;8.524;2022-10-16T19:27:02;4.83;;;3.20;;
12222;SDS011;6174;49.058;8.524;2022-10-16T19:29:29;3.33;;;3.07;;
12222;SDS011;6174;49.058;8.524;2022-10-16T19:31:56;4.80;;;3.10;;
12222;SDS011;6174;49.058;8.524;2022-10-16T19:34:26;3.57;;;3.27;;
12222;SDS011;6174;49.058;8.524;2022-10-16T19:36:54;4.40;;;3.27;;
12222;SDS011;6174;49.058;8.524;2022-10-16T19:39:21;4.87;;;2.93;;
12222;SDS011;6174;49.058;8.524;2022-10-16T19:41:49;3.33;;;3.03;;
12222;SDS011;6174;49.058;8.524;2022-10-16T19:44:16;3.27;;;2.97;;
12222;SDS011;6174;49.058;8.524;2022-10-16T19:46:44;3.90;;;3.37;;
12222;SDS011;6174;49.058;8.524;2022-10-16T19:49:13;4.67;;;3.40;;
12222;SDS011;6174;49.058;8.524;2022-10-16T19:51:44;4.30;;;3.30;;
12222;SDS011;6174;49.058;8.524;2022-10-16T19:54:13;5.00;;;3.20;;
12222;SDS011;6174;49.058;8.524;2022-10-16T19:56:40;3.47;;;3.17;;
12222;SDS011;6174;49.058;8.524;2022-10-16T19:59:08;3.80;;;3.00;;
12222;SDS011;6174;49.058;8.524;2022-10-16T20:01:37;3.97;;;3.13;;
12222;SDS011;6174;49.058;8.524;2022-10-16T20:04:03;7.33;;;5.87;;
12222;SDS011;6174;49.058;8.524;2022-10-16T20:06:30;3.37;;;3.10;;
12222;SDS011;6174;49.058;8.524;2022-10-16T20:08:57;4.73;;;3.00;;
12222;SDS011;6174;49.058;8.524;2022-10-16T20:11:26;5.47;;;3.20;;
12222;SDS011;6174;49.058;8.524;2022-10-16T20:13:54;4.40;;;3.33;;
12222;SDS011;6174;49.058;8.524;2022-10-16T20:16:21;4.73;;;3.43;;
12222;SDS011;6174;49.058;8.524;2022-10-16T20:18:49;4.27;;;3.17;;
12222;SDS011;6174;49.058;8.524;2022-10-16T20:21:17;5.07;;;2.77;;
12222;SDS011;6174;49.058;8.524;2022-10-16T20:23:45;4.60;;;3.07;;
12222;SDS011;6174;49.058;8.524;2022-10-16T20:26:14;3.30;;;2.97;;
12222;SDS011;6174;49.058;8.524;2022-10-16T20:28:43;4.50;;;3.00;;
12222;SDS011;6174;49.058;8.524;2022-10-16T20:31:11;4.83;;;3.40;;
12222;SDS011;6174;49.058;8.524;2022-10-16T20:33:40;4.77;;;3.70;;
12222;SDS011;6174;49.058;8.524;2022-10-16T20:36:09;6.33;;;3.30;;
12222;SDS011;6174;49.058;8.524;2022-10-16T20:38:36;4.53;;;3.23;;
12222;SDS011;6174;49.058;8.524;2022-10-16T20:41:04;5.73;;;3.10;;